Terminal Aerodrome Forecast
Issued by NWS

Home | Current Version | Previous Version | Graphics & Text | Print | Product List | Glossary On
Versions: 1 2 3 4 5 6 7 8 9 10 11 12 13 14 15
000
FTUS43 KGRB 091600 AAB
TAFCWA
TAF AMD
KCWA 091640Z 0917/1012 32009G17KT P6SM SCT030 BKN060
     FM100100 VRB03KT P6SM SCT070 SCT100=

USA.gov is the U.S. government's official web portal to all federal, state and local government web resources and services.